Chewelah, WA

4:17 PM PDT on August 30, 2014 (GMT -0700)
405 E. Lincoln | Change Station
CLOSE
Current Station
Personal Weather Station
Location: Chewelah, WA
Elevation: 1671 ft
Nearby Weather Stations

Elev 1671 ft 48.28 °N, 117.71 °W | Updated 2 minutes ago

Mostly Cloudy
Mostly Cloudy
75.5 °F
Feels Like 77 °F
N
5.0
Wind Variable Wind from WSW
Gusts 7.0 mph

Today
High -- | Low -- °F
--% Chance of Precip.
Yesterday
High -- | Low -- °F
Precip. -- in
6:05 AM 7:36 PM
Waxing Crescent, 25% visible
Pressure 29.79 in
Visibility 10.0 miles
Clouds Scattered Clouds 7500 ft
Mostly Cloudy 9000 ft
Heat Index 77 °F
Dew Point 43 °F
Humidity 31%
Rainfall 0.00 in
Snow Depth Not available.
UV 2 out of 12
Pollen 7.40 out of 12
PM2.5 Good
Flu Activity Not available.
METAR KDEW 302253Z AUTO 25013G19KT 10SM SCT075 BKN090 24/04 A2981 RMK AO2 SLP086 T02390039

More Conditions Fewer Conditions

Pressure 29.79 in
Visibility 10.0 miles
Clouds Scattered Clouds 7500 ft
Mostly Cloudy 9000 ft
Heat Index 77 °F
Dew Point 43 °F
Humidity 31%
Rainfall 0.00 in
Snow Depth Not available.
UV 2 out of 12
Pollen 7.40 out of 12
PM2.5 Good
Flu Activity Not available.
METAR KDEW 302253Z AUTO 25013G19KT 10SM SCT075 BKN090 24/04 A2981 RMK AO2 SLP086 T02390039

More Conditions Fewer Conditions

10-Day Weather Forecast

Almanac

Astronomy

Aug. 30, 2014 Rise Set
Actual Time 6:05 AM PDT 7:36 PM PDT
Civil Twilight 5:33 AM PDT 8:08 PM PDT
Nautical Twilight 4:53 AM PDT 8:48 PM PDT
Astronomical Twilight 4:10 AM PDT 9:30 PM PDT
Moon 11:23 AM PDT 9:46 PM PDT
Length of Visible Light 14h 35m
Length of Day
13h 30m
Tomorrow will be 3m 23s shorter.
Waxing Crescent, 25% of the Moon is Illuminated
Today
Waxing Crescent
Sep 2
First Quarter
Sep 8
Full
Sep 15
Last Quarter
Sep 24
New

Today's Extremes

State Highs State Lows

Community

WunderPhotos

Upload Photos

1,748,670 photos uploaded!

Nearby

Air Quality

  Air Quality AQ Index Pollutant
Yesterday Good
OZONE
Yesterday Good
PM10
Current Good
PM2.5
Saturday Good
PM10
Saturday Good
OZONE
Sunday Good
PM10
Sunday Good
OZONE
Monday Good
PM10
Monday Good
OZONE

Snow Depth

Station Depth Elevation
Quartz Peak 1 in 4700 ft
Sentinel Butte 0 in 4920 ft
Moses Mountain 0 in 5300 ft
Harts Pass 0 in 6500 ft
Rainy Pass 0 in 4780 ft

Earthquake Activity

City Distance Mag. Time & Date
No recent earthquake activity has been reported nearby.
Minimum magnitude displayed is 2.5.

Coastal Water Temperatures

Place Temperature
No Stations Reporting

Nearby Weather Stations